Genco Loire — V7GN8 — position and weather

sailwx.info

Track history (hours):
 
Tides and Currents Weather Stations Pressure Air Temp Water Temp Dewpoint Dewpoint Depression Visibility Wind Speed Wind Dir Waves Ship Positions

Genco Loire

Last reported at 2015-Jul-19 15:10 UTC. Time now 2015-Aug-01 09:50 UTC.
Position S 34°46' W 057°35'.
Warning: this ship's position is 12 days out of date.

Length 190 m; draft 10.4 m.

MMSI: 538002760.

Date/timePositionNaut miles runAvg speedWind from/ knotsBaromVisibWave heightAir tempDewpointWater temp
2015-Jul-19 15:10S 34°46' W 057°35'6 9.6
2015-Jul-19 14:33S 34°44' W 057°42'5 5.4
2015-Jul-19 13:33S 34°44' W 057°49'0 0.2
2015-Jul-19 12:33S 34°44' W 057°49'0 0.1
2015-Jul-19 11:33S 34°44' W 057°49'0 0.0
2015-Jul-19 10:33S 34°44' W 057°49'0 0.0
2015-Jul-19 09:33S 34°44' W 057°49'0 0.0
2015-Jul-19 08:33S 34°44' W 057°49'0 0.0
2015-Jul-19 07:33S 34°44' W 057°49'4 3.9
2015-Jul-19 06:33S 34°42' W 057°53'8 8.5
2015-Jul-19 05:33S 34°39' W 058°03'8 8.2
2015-Jul-19 04:33S 34°37' W 058°13'  
2015-Jul-11 02:29S 34°15' W 058°04'1011.0
2015-Jul-11 01:33S 34°24' W 057°59'1110.7
2015-Jul-11 00:33S 34°35' W 057°56'9 9.1
2015-Jul-10 23:34S 34°43' W 057°53'1 1.4
2015-Jul-10 22:31S 34°44' W 057°52'0 0.0
2015-Jul-10 21:31S 34°44' W 057°52'0 0.0
2015-Jul-10 20:31S 34°44' W 057°52'0 0.0
2015-Jul-10 19:31S 34°44' W 057°52'0 0.2
2015-Jul-10 18:31S 34°44' W 057°52'0 0.0
2015-Jul-10 17:31S 34°44' W 057°52'0 0.1
2015-Jul-10 16:28S 34°44' W 057°52'0 0.0
2015-Jul-10 15:31S 34°44' W 057°52'0 0.0
2015-Jul-10 14:31S 34°44' W 057°52'0 0.0
2015-Jul-10 13:31S 34°44' W 057°52'0 0.1
2015-Jul-10 12:28S 34°44' W 057°52'0 0.2
2015-Jul-10 11:31S 34°44' W 057°52'0 0.0
2015-Jul-10 10:31S 34°44' W 057°52'0 0.0
2015-Jul-10 09:31S 34°44' W 057°52'0 0.0
2015-Jul-10 08:31S 34°44' W 057°52'0 0.0
2015-Jul-10 07:31S 34°44' W 057°52'0 0.0
2015-Jul-10 06:31S 34°44' W 057°52'0 0.0
2015-Jul-10 05:31S 34°44' W 057°52'0 0.1
2015-Jul-10 04:31S 34°44' W 057°52'4 4.5
2015-Jul-10 03:33S 34°44' W 057°47'1212.0
2015-Jul-10 02:33S 34°46' W 057°32'  
Track history (hours):
 
Tides and Currents Weather Stations Pressure Air Temp Water Temp Dewpoint Dewpoint Depression Visibility Wind Speed Wind Dir Waves Ship Positions

Genco Loire

Last reported at 2015-Jul-19 15:10 UTC. Time now 2015-Aug-01 09:50 UTC.
Position S 34°46' W 057°35'.
Warning: this ship's position is 12 days out of date.

Length 190 m; draft 10.4 m.

MMSI: 538002760.

Date/timePositionNaut miles runAvg speedWind from/ knotsBaromVisibWave heightAir tempDewpointWater temp
2015-Jul-19 15:10S 34°46' W 057°35'6 9.6
2015-Jul-19 14:33S 34°44' W 057°42'5 5.4
2015-Jul-19 13:33S 34°44' W 057°49'0 0.2
2015-Jul-19 12:33S 34°44' W 057°49'0 0.1
2015-Jul-19 11:33S 34°44' W 057°49'0 0.0
2015-Jul-19 10:33S 34°44' W 057°49'0 0.0
2015-Jul-19 09:33S 34°44' W 057°49'0 0.0
2015-Jul-19 08:33S 34°44' W 057°49'0 0.0
2015-Jul-19 07:33S 34°44' W 057°49'4 3.9
2015-Jul-19 06:33S 34°42' W 057°53'8 8.5
2015-Jul-19 05:33S 34°39' W 058°03'8 8.2
2015-Jul-19 04:33S 34°37' W 058°13'  
2015-Jul-11 02:29S 34°15' W 058°04'1011.0
2015-Jul-11 01:33S 34°24' W 057°59'1110.7
2015-Jul-11 00:33S 34°35' W 057°56'9 9.1
2015-Jul-10 23:34S 34°43' W 057°53'1 1.4
2015-Jul-10 22:31S 34°44' W 057°52'0 0.0
2015-Jul-10 21:31S 34°44' W 057°52'0 0.0
2015-Jul-10 20:31S 34°44' W 057°52'0 0.0
2015-Jul-10 19:31S 34°44' W 057°52'0 0.2
2015-Jul-10 18:31S 34°44' W 057°52'0 0.0
2015-Jul-10 17:31S 34°44' W 057°52'0 0.1
2015-Jul-10 16:28S 34°44' W 057°52'0 0.0
2015-Jul-10 15:31S 34°44' W 057°52'0 0.0
2015-Jul-10 14:31S 34°44' W 057°52'0 0.0
2015-Jul-10 13:31S 34°44' W 057°52'0 0.1
2015-Jul-10 12:28S 34°44' W 057°52'0 0.2
2015-Jul-10 11:31S 34°44' W 057°52'0 0.0
2015-Jul-10 10:31S 34°44' W 057°52'0 0.0
2015-Jul-10 09:31S 34°44' W 057°52'0 0.0
2015-Jul-10 08:31S 34°44' W 057°52'0 0.0
2015-Jul-10 07:31S 34°44' W 057°52'0 0.0
2015-Jul-10 06:31S 34°44' W 057°52'0 0.0
2015-Jul-10 05:31S 34°44' W 057°52'0 0.1
2015-Jul-10 04:31S 34°44' W 057°52'4 4.5
2015-Jul-10 03:33S 34°44' W 057°47'1212.0
2015-Jul-10 02:33S 34°46' W 057°32'  

Dump ship's entire track history